createdAt,value
2023-05-14T00:01:00.714Z,94.78
2023-05-14T00:03:27.396Z,95.58
2023-05-14T00:05:54.042Z,95.06
2023-05-14T00:08:20.624Z,95.98
2023-05-14T00:10:47.017Z,96.10
2023-05-14T00:13:13.481Z,96.52
2023-05-14T00:15:40.153Z,97.04
2023-05-14T00:18:07.134Z,96.37
2023-05-14T00:20:33.721Z,96.20
2023-05-14T00:23:00.653Z,96.79
2023-05-14T00:25:28.069Z,96.56
2023-05-14T00:27:54.606Z,95.59
2023-05-14T00:30:21.128Z,95.77
2023-05-14T00:32:47.805Z,95.30
2023-05-14T00:35:14.323Z,95.54
2023-05-14T00:37:40.716Z,95.84
2023-05-14T00:40:08.622Z,94.81
2023-05-14T00:42:35.162Z,94.48
2023-05-14T00:45:01.602Z,94.27
2023-05-14T00:47:28.258Z,95.42
2023-05-14T00:49:54.822Z,94.63
2023-05-14T00:52:21.657Z,95.75
2023-05-14T00:54:49.008Z,95.72
2023-05-14T00:57:16.264Z,95.01
2023-05-14T00:59:42.807Z,95.24
2023-05-14T01:02:09.339Z,94.84
2023-05-14T01:04:35.934Z,94.83
2023-05-14T01:07:13.832Z,94.24
2023-05-14T01:09:44.498Z,94.71
2023-05-14T01:12:32.740Z,95.11
2023-05-14T01:15:21.086Z,94.87
2023-05-14T01:17:56.779Z,93.74
2023-05-14T01:20:23.754Z,95.12
2023-05-14T01:22:50.487Z,95.31
2023-05-14T01:25:16.937Z,94.95
2023-05-14T01:27:59.206Z,95.52
2023-05-14T01:30:34.047Z,95.54
2023-05-14T01:33:03.572Z,95.69
2023-05-14T01:35:30.834Z,95.80
2023-05-14T01:38:00.509Z,95.28
2023-05-14T01:40:27.506Z,93.85
2023-05-14T01:42:55.313Z,94.04
2023-05-14T01:45:22.660Z,94.05
2023-05-14T01:47:49.530Z,94.48
2023-05-14T01:50:16.339Z,94.94
2023-05-14T01:52:43.162Z,94.86
2023-05-14T01:55:10.160Z,94.56
2023-05-14T01:57:36.783Z,94.43
2023-05-14T02:00:04.329Z,94.63
2023-05-14T02:02:40.676Z,95.51
2023-05-14T02:05:10.396Z,95.15
2023-05-14T02:07:36.897Z,94.88
2023-05-14T02:10:03.712Z,95.10
2023-05-14T02:12:30.378Z,95.59
2023-05-14T02:14:56.758Z,95.67
2023-05-14T02:17:26.407Z,95.29
2023-05-14T02:19:52.995Z,95.09
2023-05-14T02:22:19.354Z,95.60
2023-05-14T02:24:45.967Z,95.31
2023-05-14T02:27:13.268Z,95.46
2023-05-14T02:29:39.875Z,95.49
2023-05-14T02:32:06.873Z,95.13
2023-05-14T02:34:34.498Z,94.83
2023-05-14T02:37:01.223Z,95.00
2023-05-14T02:39:27.708Z,95.24
2023-05-14T02:41:54.150Z,95.49
2023-05-14T02:44:20.645Z,96.54
2023-05-14T02:46:47.874Z,96.80
2023-05-14T02:49:14.617Z,96.78
2023-05-14T02:51:41.256Z,96.92
2023-05-14T02:54:07.702Z,96.29
2023-05-14T02:56:34.210Z,95.26
2023-05-14T02:59:00.628Z,95.20
2023-05-14T03:01:27.700Z,95.13
2023-05-14T03:03:54.613Z,94.65
2023-05-14T03:06:20.977Z,95.38
2023-05-14T03:08:47.600Z,94.91
2023-05-14T03:11:14.007Z,96.79
2023-05-14T03:13:40.535Z,96.58
2023-05-14T03:16:07.053Z,96.45
2023-05-14T03:18:34.804Z,96.50
2023-05-14T03:21:01.530Z,96.25
2023-05-14T03:23:28.061Z,96.09
2023-05-14T03:25:54.458Z,96.75
2023-05-14T03:28:20.940Z,96.93
2023-05-14T03:30:47.521Z,96.49
2023-05-14T03:33:14.050Z,97.52
2023-05-14T03:35:40.455Z,97.69
2023-05-14T03:38:07.497Z,98.79
2023-05-14T03:40:34.388Z,97.67
2023-05-14T03:43:00.791Z,98.67
2023-05-14T03:45:28.675Z,98.24
2023-05-14T03:47:55.227Z,97.45
2023-05-14T03:50:25.351Z,97.31
2023-05-14T03:52:52.712Z,95.92
2023-05-14T03:55:19.912Z,96.84
2023-05-14T03:57:47.654Z,94.58
2023-05-14T04:00:14.805Z,95.02
2023-05-14T04:02:44.245Z,94.00
2023-05-14T04:05:11.120Z,95.01
2023-05-14T04:07:37.722Z,95.09
2023-05-14T04:10:04.807Z,95.32
2023-05-14T04:12:34.022Z,94.64
2023-05-14T04:15:01.054Z,89.41
2023-05-14T04:17:27.648Z,82.99
2023-05-14T04:19:54.164Z,85.61
2023-05-14T04:22:20.636Z,88.57
2023-05-14T04:24:47.065Z,88.32
2023-05-14T04:27:22.520Z,90.87
2023-05-14T04:29:50.353Z,91.60
2023-05-14T04:32:17.561Z,88.50
2023-05-14T04:34:44.246Z,91.61
2023-05-14T04:37:10.722Z,92.53
2023-05-14T04:39:38.483Z,91.20
2023-05-14T04:42:06.582Z,92.52
2023-05-14T04:44:34.536Z,92.38
2023-05-14T04:47:01.002Z,92.09
2023-05-14T04:49:27.579Z,90.54
2023-05-14T04:51:54.121Z,89.73
2023-05-14T04:54:20.684Z,90.28
2023-05-14T04:56:47.742Z,89.62
2023-05-14T04:59:14.247Z,88.54
2023-05-14T05:01:40.714Z,87.38
2023-05-14T05:04:07.275Z,88.34
2023-05-14T05:06:33.698Z,87.05
2023-05-14T05:09:02.007Z,85.83
2023-05-14T05:11:28.822Z,84.32
2023-05-14T05:13:55.232Z,83.31
2023-05-14T05:16:21.760Z,82.74
2023-05-14T05:18:48.357Z,82.58
2023-05-14T05:21:14.834Z,81.83
2023-05-14T05:23:41.302Z,79.99
2023-05-14T05:26:07.798Z,80.10
2023-05-14T05:28:34.256Z,79.07
2023-05-14T05:31:00.782Z,79.06
2023-05-14T05:33:27.242Z,74.17
2023-05-14T05:35:53.704Z,74.39
2023-05-14T05:38:20.095Z,71.53
2023-05-14T05:40:46.582Z,62.63
2023-05-14T05:43:13.871Z,62.91
2023-05-14T05:45:40.886Z,64.31
2023-05-14T05:48:07.451Z,66.60
2023-05-14T05:50:33.953Z,66.81
2023-05-14T05:53:00.547Z,68.21
2023-05-14T05:55:28.761Z,68.94
2023-05-14T05:57:55.625Z,71.38
2023-05-14T06:02:48.740Z,72.68
2023-05-14T06:05:15.313Z,71.77
2023-05-14T06:07:41.862Z,70.05
2023-05-14T06:10:08.535Z,73.97
2023-05-14T06:12:35.292Z,74.09
2023-05-14T06:15:01.841Z,73.58
2023-05-14T06:17:28.294Z,71.14
2023-05-14T06:19:54.819Z,71.05
2023-05-14T06:22:21.278Z,69.25
2023-05-14T06:24:48.145Z,68.22
2023-05-14T06:27:14.865Z,61.11
2023-05-14T06:29:41.410Z,62.86
2023-05-14T06:32:08.070Z,64.83
2023-05-14T06:34:34.671Z,62.89
2023-05-14T06:37:02.808Z,60.49
2023-05-14T06:39:29.481Z,60.71
2023-05-14T06:41:55.938Z,59.73
2023-05-14T06:44:23.276Z,61.14
2023-05-14T06:46:49.741Z,60.04
2023-05-14T06:49:16.453Z,63.53
2023-05-14T06:51:43.213Z,62.98
2023-05-14T06:54:09.582Z,61.78
2023-05-14T06:56:36.095Z,64.48
2023-05-14T06:59:02.758Z,62.62
2023-05-14T07:01:29.354Z,61.39
2023-05-14T07:03:56.294Z,59.49
2023-05-14T07:06:23.684Z,60.43
2023-05-14T07:08:50.165Z,61.68
2023-05-14T07:11:16.622Z,62.65
2023-05-14T07:13:43.209Z,62.25
2023-05-14T07:16:10.300Z,64.04
2023-05-14T07:18:36.941Z,65.20
2023-05-14T07:21:06.485Z,64.65
2023-05-14T07:23:36.112Z,66.64
2023-05-14T07:26:03.433Z,66.39
2023-05-14T07:28:29.995Z,66.35
2023-05-14T07:30:56.558Z,65.73
2023-05-14T07:33:24.265Z,66.38
2023-05-14T07:35:50.939Z,67.47
2023-05-14T07:38:17.666Z,67.18
2023-05-14T07:40:44.173Z,65.44
2023-05-14T07:43:10.767Z,67.11
2023-05-14T07:45:38.954Z,64.62
2023-05-14T07:48:05.634Z,66.07
2023-05-14T07:50:32.356Z,64.06
2023-05-14T07:52:58.800Z,65.76
2023-05-14T07:55:25.901Z,64.97
2023-05-14T07:57:52.358Z,63.50
2023-05-14T08:00:18.979Z,63.92
2023-05-14T08:02:45.633Z,64.14
2023-05-14T08:05:12.191Z,64.08
2023-05-14T08:07:38.612Z,63.60
2023-05-14T08:10:06.908Z,62.63
2023-05-14T08:12:33.542Z,63.37
2023-05-14T08:14:59.987Z,63.75
2023-05-14T08:17:27.515Z,62.67
2023-05-14T08:19:54.237Z,63.65
2023-05-14T08:22:21.759Z,62.66
2023-05-14T08:24:48.871Z,62.92
2023-05-14T08:27:16.568Z,60.19
2023-05-14T08:29:43.159Z,61.56
2023-05-14T08:32:19.756Z,61.36
2023-05-14T08:34:49.609Z,59.66
2023-05-14T08:37:15.980Z,56.90
2023-05-14T08:39:42.447Z,56.61
2023-05-14T08:42:10.578Z,59.31
2023-05-14T08:44:45.518Z,59.77
2023-05-14T08:47:15.378Z,58.90
2023-05-14T08:49:44.835Z,57.29
2023-05-14T08:52:12.094Z,59.65
2023-05-14T08:54:40.024Z,56.13
2023-05-14T08:57:10.571Z,58.14
2023-05-14T08:59:37.447Z,57.58
2023-05-14T09:28:28.046Z,61.08
2023-05-14T09:30:55.134Z,59.88
2023-05-14T09:33:29.210Z,57.56
2023-05-14T09:36:01.322Z,59.13
2023-05-14T09:38:29.826Z,58.85
2023-05-14T09:40:57.408Z,58.09
2023-05-14T09:43:23.968Z,60.46
2023-05-14T09:45:50.953Z,57.49
2023-05-14T09:48:17.586Z,58.71
2023-05-14T09:50:46.119Z,58.92
2023-05-14T09:53:14.172Z,60.83
2023-05-14T09:55:41.704Z,59.04
2023-05-14T09:58:08.194Z,59.57
2023-05-14T10:00:35.705Z,60.23
2023-05-14T10:03:07.998Z,61.17
2023-05-14T10:05:41.019Z,59.11
2023-05-14T10:08:12.572Z,58.54
2023-05-14T10:10:39.376Z,58.97
2023-05-14T10:13:14.577Z,58.81
2023-05-14T10:15:49.119Z,58.30
2023-05-14T10:18:22.972Z,57.49
2023-05-14T10:21:01.132Z,56.48
2023-05-14T10:23:27.865Z,54.12
2023-05-14T10:25:54.804Z,55.87
2023-05-14T10:28:21.399Z,51.97
2023-05-14T10:30:50.352Z,54.45
2023-05-14T10:33:18.490Z,53.30
2023-05-14T10:36:01.361Z,51.35
2023-05-14T10:38:29.503Z,51.70
2023-05-14T10:41:04.468Z,51.18
2023-05-14T10:43:35.909Z,51.80
2023-05-14T10:46:03.008Z,51.90
2023-05-14T10:48:29.726Z,51.38
2023-05-14T10:50:57.512Z,51.36
2023-05-14T10:53:33.568Z,50.22
2023-05-14T10:56:08.318Z,51.95
2023-05-14T10:58:37.379Z,50.04
2023-05-14T11:01:06.653Z,51.82
2023-05-14T11:03:39.758Z,51.21
2023-05-14T11:06:07.569Z,50.53
2023-05-14T11:08:34.126Z,52.45
2023-05-14T11:11:00.893Z,52.40
2023-05-14T11:13:27.995Z,54.84
2023-05-14T11:15:55.550Z,54.97
2023-05-14T11:18:33.407Z,54.46
2023-05-14T11:21:01.214Z,53.33
2023-05-14T11:23:28.654Z,54.19
2023-05-14T11:25:56.687Z,53.37
2023-05-14T11:28:24.463Z,55.18
2023-05-14T11:30:51.526Z,53.29
2023-05-14T11:33:19.342Z,53.88
2023-05-14T11:35:47.108Z,52.39
2023-05-14T11:38:15.475Z,52.34
2023-05-14T11:40:42.017Z,50.82
2023-05-14T11:43:08.728Z,50.77
2023-05-14T11:45:36.409Z,52.89
2023-05-14T11:48:11.481Z,53.58
2023-05-14T11:50:38.098Z,53.74
2023-05-14T11:53:04.592Z,53.78
2023-05-14T11:55:33.744Z,54.08
2023-05-14T11:58:00.334Z,53.42
2023-05-14T12:00:27.165Z,53.06
2023-05-14T12:02:54.533Z,54.52
2023-05-14T12:05:21.243Z,52.19
2023-05-14T12:07:47.958Z,52.80
2023-05-14T12:10:15.160Z,53.77
2023-05-14T12:12:46.090Z,52.88
2023-05-14T12:15:14.122Z,53.40
2023-05-14T12:17:41.283Z,54.11
2023-05-14T12:20:12.404Z,52.37
2023-05-14T12:22:39.464Z,53.72
2023-05-14T12:25:13.343Z,51.63
2023-05-14T12:27:40.199Z,50.71
2023-05-14T12:32:40.414Z,53.10
2023-05-14T12:35:07.206Z,50.39
2023-05-14T12:37:34.172Z,50.59
2023-05-14T12:40:00.713Z,53.06
2023-05-14T12:42:27.427Z,54.65
2023-05-14T12:44:54.028Z,54.51
2023-05-14T12:47:20.989Z,53.43
2023-05-14T12:49:47.630Z,54.64
2023-05-14T12:54:43.668Z,56.88
2023-05-14T12:57:10.360Z,58.84
2023-05-14T12:59:37.028Z,59.15
2023-05-14T13:02:03.809Z,65.68
2023-05-14T13:04:30.425Z,64.75
2023-05-14T13:06:57.041Z,68.60
2023-05-14T13:09:23.562Z,69.46
2023-05-14T13:11:50.058Z,71.75
2023-05-14T13:14:17.802Z,71.92
2023-05-14T13:16:44.954Z,74.30
2023-05-14T13:19:11.693Z,65.97
2023-05-14T13:21:38.388Z,70.88
2023-05-14T13:24:05.228Z,74.01
2023-05-14T13:26:31.932Z,66.74
2023-05-14T13:28:58.537Z,73.46
2023-05-14T13:31:25.135Z,74.11
2023-05-14T13:33:51.741Z,72.67
2023-05-14T13:36:18.251Z,74.16
2023-05-14T13:38:48.433Z,75.48
2023-05-14T13:41:14.989Z,80.39
2023-05-14T13:43:41.461Z,81.14
2023-05-14T13:46:08.050Z,76.75
2023-05-14T13:48:36.439Z,79.20
2023-05-14T13:51:03.245Z,73.04
2023-05-14T13:53:30.542Z,75.92
2023-05-14T13:55:58.414Z,76.27
2023-05-14T13:58:25.598Z,73.21
2023-05-14T14:00:52.888Z,75.64
2023-05-14T14:03:19.735Z,74.89
2023-05-14T14:05:46.347Z,73.80
2023-05-14T14:08:23.452Z,74.56
2023-05-14T14:10:51.104Z,76.72
2023-05-14T14:13:17.644Z,75.44
2023-05-14T14:15:44.383Z,76.18
2023-05-14T14:18:11.088Z,68.28
2023-05-14T14:20:38.188Z,70.26
2023-05-14T14:23:04.733Z,70.89
2023-05-14T14:25:31.183Z,70.79
2023-05-14T14:27:57.796Z,74.37
2023-05-14T14:30:24.319Z,66.86
2023-05-14T14:32:50.875Z,70.93
2023-05-14T14:35:18.885Z,66.74
2023-05-14T14:37:49.240Z,67.90
2023-05-14T14:40:16.845Z,69.20
2023-05-14T14:42:43.724Z,70.04
2023-05-14T14:45:11.226Z,66.73
2023-05-14T14:47:37.842Z,68.46
2023-05-14T14:50:05.157Z,72.37
2023-05-14T14:52:31.738Z,70.04
2023-05-14T14:54:58.265Z,73.65
2023-05-14T14:57:24.903Z,65.25
2023-05-14T14:59:51.409Z,69.69
2023-05-14T15:02:17.925Z,67.55
2023-05-14T15:04:44.466Z,63.53
2023-05-14T15:07:11.169Z,67.06
2023-05-14T15:09:37.751Z,67.60
2023-05-14T15:12:05.046Z,64.44
2023-05-14T15:14:31.566Z,65.35
2023-05-14T15:16:58.156Z,66.35
2023-05-14T15:19:24.806Z,66.46
2023-05-14T15:21:51.841Z,61.26
2023-05-14T15:24:18.520Z,63.36
2023-05-14T15:26:45.102Z,62.09
2023-05-14T15:29:11.730Z,62.09
2023-05-14T15:31:38.497Z,60.85
2023-05-14T15:34:05.144Z,64.39
2023-05-14T15:36:32.259Z,64.40
2023-05-14T15:38:59.524Z,65.12
2023-05-14T15:41:28.607Z,65.49
2023-05-14T15:43:56.046Z,64.07
2023-05-14T15:46:23.669Z,66.02
2023-05-14T15:48:50.352Z,66.73
2023-05-14T15:51:16.855Z,68.05
2023-05-14T15:53:43.283Z,68.70
2023-05-14T15:56:10.124Z,68.17
2023-05-14T15:58:36.681Z,71.33
2023-05-14T16:01:03.175Z,69.11
2023-05-14T16:03:29.953Z,68.69
2023-05-14T16:05:56.777Z,70.73
2023-05-14T16:08:23.303Z,70.51
2023-05-14T16:10:49.767Z,71.66
2023-05-14T16:13:16.319Z,74.44
2023-05-14T16:15:42.986Z,75.35
2023-05-14T16:18:09.742Z,77.54
2023-05-14T16:20:36.299Z,76.01
2023-05-14T16:23:02.773Z,74.41
2023-05-14T16:25:30.785Z,73.29
2023-05-14T16:27:57.448Z,74.46
2023-05-14T16:30:24.406Z,73.78
2023-05-14T16:32:51.137Z,73.87
2023-05-14T16:35:17.598Z,73.51
2023-05-14T16:37:44.087Z,73.20
2023-05-14T16:40:11.779Z,74.13
2023-05-14T16:42:38.588Z,73.41
2023-05-14T16:45:05.470Z,72.74
2023-05-14T16:47:32.046Z,71.72
2023-05-14T16:49:58.608Z,72.42
2023-05-14T16:52:25.020Z,74.09
2023-05-14T16:54:51.529Z,72.90
2023-05-14T16:57:18.016Z,73.37
2023-05-14T16:59:44.532Z,73.41
2023-05-14T17:02:10.939Z,73.11
2023-05-14T17:04:40.879Z,73.82
2023-05-14T17:07:07.719Z,75.50
2023-05-14T17:09:34.275Z,73.73
2023-05-14T17:12:00.697Z,72.87
2023-05-14T17:14:27.679Z,73.84
2023-05-14T17:16:54.434Z,71.83
2023-05-14T17:19:21.071Z,73.48
2023-05-14T17:21:47.604Z,72.01
2023-05-14T17:24:14.055Z,72.83
2023-05-14T17:26:40.659Z,73.88
2023-05-14T17:29:07.161Z,74.94
2023-05-14T17:31:33.640Z,75.08
2023-05-14T17:34:00.691Z,76.49
2023-05-14T17:36:28.635Z,76.71
2023-05-14T17:38:55.257Z,76.54
2023-05-14T17:41:21.711Z,76.93
2023-05-14T17:43:48.488Z,76.70
2023-05-14T17:46:15.111Z,76.40
2023-05-14T17:48:41.709Z,78.08
2023-05-14T17:51:08.161Z,77.83
2023-05-14T17:53:34.816Z,77.85
2023-05-14T17:56:01.555Z,78.00
2023-05-14T17:58:28.255Z,79.37
2023-05-14T18:00:54.820Z,79.14
2023-05-14T18:03:21.560Z,79.54
2023-05-14T18:05:48.212Z,79.97
2023-05-14T18:08:15.334Z,80.12
2023-05-14T18:10:41.905Z,80.82
2023-05-14T18:13:08.390Z,82.44
2023-05-14T18:15:36.424Z,81.99
2023-05-14T18:18:03.123Z,82.76
2023-05-14T18:20:29.624Z,83.15
2023-05-14T18:22:56.088Z,82.77
2023-05-14T18:25:23.017Z,83.40
2023-05-14T18:27:49.982Z,83.36
2023-05-14T18:30:16.707Z,84.96
2023-05-14T18:32:44.600Z,84.83
2023-05-14T18:35:11.771Z,85.82
2023-05-14T18:37:38.405Z,87.45
2023-05-14T18:40:06.959Z,87.69
2023-05-14T18:42:34.463Z,87.73
2023-05-14T18:45:02.164Z,88.93
2023-05-14T18:47:28.771Z,87.75
2023-05-14T18:49:58.105Z,88.60
2023-05-14T18:52:26.136Z,88.86
2023-05-14T18:54:53.797Z,90.17
2023-05-14T18:57:21.119Z,89.21
2023-05-14T18:59:47.673Z,89.79
2023-05-14T19:02:14.155Z,90.57
2023-05-14T19:04:51.189Z,90.90
2023-05-14T19:07:18.196Z,90.85
2023-05-14T19:09:45.677Z,91.67
2023-05-14T19:12:12.637Z,91.39
2023-05-14T19:14:39.237Z,91.88
2023-05-14T19:17:05.847Z,91.97
2023-05-14T19:19:32.648Z,92.53
2023-05-14T19:21:59.268Z,93.28
2023-05-14T19:24:25.886Z,92.43
2023-05-14T19:26:52.648Z,94.21
2023-05-14T19:29:19.193Z,93.60
2023-05-14T19:31:45.924Z,94.35
2023-05-14T19:34:12.552Z,93.59
2023-05-14T19:36:39.048Z,93.36
2023-05-14T19:39:05.982Z,94.45
2023-05-14T19:41:32.509Z,94.83
2023-05-14T19:43:59.050Z,93.95
2023-05-14T19:46:26.186Z,95.38
2023-05-14T19:48:52.870Z,95.48
2023-05-14T19:51:19.794Z,95.84
2023-05-14T19:53:46.438Z,94.84
2023-05-14T19:56:12.913Z,94.60
2023-05-14T19:58:39.480Z,95.98
2023-05-14T20:01:05.944Z,94.57
2023-05-14T20:03:33.443Z,96.05
2023-05-14T20:06:00.206Z,94.42
2023-05-14T20:08:29.098Z,96.05
2023-05-14T20:10:55.779Z,95.87
2023-05-14T20:13:24.423Z,95.75
2023-05-14T20:15:51.834Z,96.07
2023-05-14T20:18:18.381Z,96.06
2023-05-14T20:20:44.808Z,96.41
2023-05-14T20:23:11.348Z,98.22
2023-05-14T20:25:37.797Z,97.21
2023-05-14T20:28:04.515Z,95.96
2023-05-14T20:30:31.133Z,97.28
2023-05-14T20:32:58.031Z,96.47
2023-05-14T20:35:24.715Z,96.83
2023-05-14T20:37:51.434Z,97.02
2023-05-14T20:40:18.133Z,96.24
2023-05-14T20:42:44.938Z,97.09
2023-05-14T20:45:11.578Z,96.75
2023-05-14T20:47:38.296Z,97.22
2023-05-14T20:50:05.376Z,98.11
2023-05-14T20:52:31.963Z,98.34
2023-05-14T20:55:01.377Z,98.28
2023-05-14T20:57:28.607Z,97.73
2023-05-14T20:59:55.123Z,97.55
2023-05-14T21:02:21.653Z,98.46
2023-05-14T21:04:48.363Z,99.20
2023-05-14T21:07:14.977Z,98.98
2023-05-14T21:09:41.496Z,99.12
2023-05-14T21:12:08.499Z,98.83
2023-05-14T21:14:35.124Z,100.00
2023-05-14T21:17:01.674Z,100.00
2023-05-14T21:19:28.083Z,100.00
2023-05-14T21:21:54.625Z,100.00
2023-05-14T21:24:21.194Z,98.92
2023-05-14T21:26:47.781Z,99.61
2023-05-14T21:29:14.269Z,99.00
2023-05-14T21:31:41.007Z,99.40
2023-05-14T21:34:07.682Z,98.59
2023-05-14T21:36:34.285Z,99.25
2023-05-14T21:39:00.971Z,98.20
2023-05-14T21:41:27.561Z,98.43
2023-05-14T21:43:54.002Z,97.92
2023-05-14T21:46:20.628Z,98.18
2023-05-14T21:48:47.304Z,98.33
2023-05-14T21:51:13.966Z,98.52
2023-05-14T21:53:40.510Z,97.90
2023-05-14T21:56:08.197Z,98.85
2023-05-14T21:58:35.744Z,98.43
2023-05-14T22:18:20.954Z,100.00
2023-05-14T22:20:47.482Z,100.00
2023-05-14T22:23:14.209Z,100.00
2023-05-14T22:25:40.809Z,100.00
2023-05-14T22:28:07.460Z,100.00
2023-05-14T22:30:34.108Z,100.00
2023-05-14T22:33:00.811Z,100.00
2023-05-14T22:35:27.531Z,100.00
2023-05-14T22:37:54.246Z,100.00
2023-05-14T22:40:20.670Z,100.00
2023-05-14T22:42:47.219Z,100.00
2023-05-14T22:45:13.725Z,100.00
2023-05-14T22:47:40.598Z,100.00
2023-05-14T22:50:11.457Z,100.00
2023-05-14T22:52:39.167Z,100.00
2023-05-14T22:55:06.476Z,100.00
2023-05-14T22:57:35.982Z,100.00
2023-05-14T23:00:04.560Z,100.00
2023-05-14T23:02:31.189Z,100.00
2023-05-14T23:04:57.822Z,100.00
2023-05-14T23:07:24.268Z,100.00
2023-05-14T23:09:50.830Z,100.00
2023-05-14T23:12:18.553Z,100.00
2023-05-14T23:14:45.017Z,100.00
2023-05-14T23:17:11.676Z,100.00
2023-05-14T23:19:38.490Z,100.00
2023-05-14T23:22:05.119Z,99.66
2023-05-14T23:24:31.688Z,99.89
2023-05-14T23:26:58.131Z,99.60
2023-05-14T23:29:24.726Z,99.21
2023-05-14T23:31:51.462Z,100.00
2023-05-14T23:34:18.454Z,99.89
2023-05-14T23:36:45.551Z,100.00
2023-05-14T23:39:12.372Z,100.00
2023-05-14T23:41:38.916Z,99.43
2023-05-14T23:44:05.882Z,99.11
2023-05-14T23:46:32.593Z,99.10
2023-05-14T23:48:59.519Z,99.80
2023-05-14T23:51:27.512Z,100.00
2023-05-14T23:53:58.233Z,100.00
2023-05-14T23:56:26.123Z,100.00
2023-05-14T23:58:52.981Z,100.00
